MSC Claudia — 3FZA6 — position and weather

sailwx.info

Track history (hours):
 
Tides and Currents Weather Stations Pressure Air Temp Water Temp Dewpoint Dewpoint Depression Visibility Wind Speed Wind Dir Waves Ship Positions

MSC Claudia

Last reported at 2015-Aug-27 22:24 UTC. Time now 2015-Aug-28 07:35 UTC.
Position N 49°14' W 004°30'.

Length 292 m; draft 10.8 m.

Type: Ship (hazmat cat A). MMSI: 370606000.

Date/timePositionNaut miles runAvg speedWind from/ knotsBaromVisibWave heightAir tempDewpointWater temp
2015-Aug-27 22:24N 49°14' W 004°30'  
2015-Aug-25 15:07N 39°52' W 009°51'611.0
2015-Aug-25 14:32N 39°46' W 009°51'1111.4
2015-Aug-25 13:33N 39°34' W 009°51'1111.3
2015-Aug-25 12:33N 39°23' W 009°51'1111.0
2015-Aug-25 11:33N 39°12' W 009°51'1111.0
2015-Aug-25 10:33N 39°01' W 009°51'1110.9
2015-Aug-25 09:33N 38°50' W 009°51'1111.2
2015-Aug-25 08:33N 38°39' W 009°51'1111.0
2015-Aug-25 07:33N 38°28' W 009°47'1211.6
2015-Aug-25 06:33N 38°17' W 009°44'1515.5
2015-Aug-25 05:33N 38°02' W 009°40'1312.4
2015-Aug-25 04:33N 37°50' W 009°36'1111.3
2015-Aug-25 03:33N 37°39' W 009°32'1110.8
2015-Aug-25 02:33N 37°28' W 009°29'1111.2
2015-Aug-25 01:33N 37°18' W 009°25'1110.8
2015-Aug-25 00:31N 37°07' W 009°22'1410.9
2015-Aug-24 23:16N 36°53' W 009°19'810.6
2015-Aug-24 22:30N 36°47' W 009°12'1011.0
2015-Aug-24 21:33N 36°42' W 009°01'1110.9
2015-Aug-24 20:33N 36°39' W 008°48'1110.8
2015-Aug-24 19:33N 36°36' W 008°35'1110.7
2015-Aug-24 18:33N 36°32' W 008°22'1110.9
2015-Aug-24 17:33N 36°29' W 008°09'1111.2
2015-Aug-24 16:33N 36°25' W 007°56'33310.4
2015-Aug-23 08:31N 37°12' W 001°05'1111.0
2015-Aug-23 07:33N 37°19' W 000°55'1111.1
2015-Aug-23 06:33N 37°27' W 000°44'1111.3
2015-Aug-23 05:33N 37°34' W 000°34'1211.5
2015-Aug-23 04:33N 37°44' W 000°26'1211.8
2015-Aug-23 03:33N 37°54' W 000°18'6011.5
2015-Aug-22 22:20N 38°44' E 000°23'1010.4
2015-Aug-22 21:23N 38°53' E 000°17'1011.6
2015-Aug-22 20:33N 39°01' E 000°09'2711.4
2015-Aug-22 18:10N 39°22' W 000°12'610.1
2015-Aug-22 17:33N 39°26' W 000°18'1 0.6
2015-Aug-22 16:32N 39°26' W 000°19'0 0.0
2015-Aug-22 15:08N 39°26' W 000°19'0 0.0
2015-Aug-22 14:11N 39°26' W 000°19'0 0.0
2015-Aug-22 13:32N 39°26' W 000°19'0 0.0
2015-Aug-22 12:23N 39°26' W 000°19'0 0.0
2015-Aug-22 11:32N 39°26' W 000°19'0 0.0
2015-Aug-22 10:26N 39°26' W 000°19'0 0.0
2015-Aug-22 09:32N 39°26' W 000°19'0 0.0
2015-Aug-22 08:32N 39°26' W 000°19'0 0.0
2015-Aug-22 07:32N 39°26' W 000°19'0 0.0
2015-Aug-22 06:29N 39°26' W 000°19'0 0.0
2015-Aug-22 05:32N 39°26' W 000°19'0 0.0
2015-Aug-22 04:32N 39°26' W 000°19'0 0.0
2015-Aug-22 03:32N 39°26' W 000°19'0 0.0
2015-Aug-22 02:32N 39°26' W 000°19'0 0.0
2015-Aug-22 01:32N 39°26' W 000°19'0 0.0
2015-Aug-22 00:20N 39°26' W 000°19'1 1.2
2015-Aug-21 23:33N 39°26' W 000°18'6 6.0
2015-Aug-21 22:33N 39°25' W 000°10'4515.1
2015-Aug-21 19:33N 39°21' E 000°48'1717.3
2015-Aug-21 18:33N 39°17' E 001°10'1817.6
2015-Aug-21 17:33N 39°13' E 001°32'1817.5
2015-Aug-21 16:33N 39°09' E 001°54'1817.7
2015-Aug-21 15:33N 39°05' E 002°16'1717.5
2015-Aug-21 14:33N 39°01' E 002°38'1817.5
2015-Aug-21 13:33N 38°57' E 003°00'1817.6
2015-Aug-21 12:33N 38°53' E 003°22'1717.6
2015-Aug-21 11:34N 38°49' E 003°44'1817.7
2015-Aug-21 10:32N 38°45' E 004°07'39117.4
2015-Aug-20 12:07N 37°12' E 012°08'1417.3
2015-Aug-20 11:18N 37°08' E 012°25'1717.4
2015-Aug-20 10:19N 37°04' E 012°46'1417.9
2015-Aug-20 09:31N 36°59' E 013°03'1717.9
2015-Aug-20 08:34N 36°55' E 013°24'1817.6
2015-Aug-20 07:34N 36°50' E 013°45'1717.3
2015-Aug-20 06:34N 36°46' E 014°06'1717.2
2015-Aug-20 05:34N 36°41' E 014°27'1717.2
2015-Aug-20 04:34N 36°36' E 014°47'1717.4
2015-Aug-20 03:34N 36°32' E 015°08'1817.6
2015-Aug-20 02:33N 36°26' E 015°29'75315.0
2015-Aug-18 00:14N 32°36' E 029°60'  
Track history (hours):
 
Tides and Currents Weather Stations Pressure Air Temp Water Temp Dewpoint Dewpoint Depression Visibility Wind Speed Wind Dir Waves Ship Positions

MSC Claudia

Last reported at 2015-Aug-27 22:24 UTC. Time now 2015-Aug-28 07:35 UTC.
Position N 49°14' W 004°30'.

Length 292 m; draft 10.8 m.

Type: Ship (hazmat cat A). MMSI: 370606000.

Date/timePositionNaut miles runAvg speedWind from/ knotsBaromVisibWave heightAir tempDewpointWater temp
2015-Aug-27 22:24N 49°14' W 004°30'  
2015-Aug-25 15:07N 39°52' W 009°51'611.0
2015-Aug-25 14:32N 39°46' W 009°51'1111.4
2015-Aug-25 13:33N 39°34' W 009°51'1111.3
2015-Aug-25 12:33N 39°23' W 009°51'1111.0
2015-Aug-25 11:33N 39°12' W 009°51'1111.0
2015-Aug-25 10:33N 39°01' W 009°51'1110.9
2015-Aug-25 09:33N 38°50' W 009°51'1111.2
2015-Aug-25 08:33N 38°39' W 009°51'1111.0
2015-Aug-25 07:33N 38°28' W 009°47'1211.6
2015-Aug-25 06:33N 38°17' W 009°44'1515.5
2015-Aug-25 05:33N 38°02' W 009°40'1312.4
2015-Aug-25 04:33N 37°50' W 009°36'1111.3
2015-Aug-25 03:33N 37°39' W 009°32'1110.8
2015-Aug-25 02:33N 37°28' W 009°29'1111.2
2015-Aug-25 01:33N 37°18' W 009°25'1110.8
2015-Aug-25 00:31N 37°07' W 009°22'1410.9
2015-Aug-24 23:16N 36°53' W 009°19'810.6
2015-Aug-24 22:30N 36°47' W 009°12'1011.0
2015-Aug-24 21:33N 36°42' W 009°01'1110.9
2015-Aug-24 20:33N 36°39' W 008°48'1110.8
2015-Aug-24 19:33N 36°36' W 008°35'1110.7
2015-Aug-24 18:33N 36°32' W 008°22'1110.9
2015-Aug-24 17:33N 36°29' W 008°09'1111.2
2015-Aug-24 16:33N 36°25' W 007°56'33310.4
2015-Aug-23 08:31N 37°12' W 001°05'1111.0
2015-Aug-23 07:33N 37°19' W 000°55'1111.1
2015-Aug-23 06:33N 37°27' W 000°44'1111.3
2015-Aug-23 05:33N 37°34' W 000°34'1211.5
2015-Aug-23 04:33N 37°44' W 000°26'1211.8
2015-Aug-23 03:33N 37°54' W 000°18'6011.5
2015-Aug-22 22:20N 38°44' E 000°23'1010.4
2015-Aug-22 21:23N 38°53' E 000°17'1011.6
2015-Aug-22 20:33N 39°01' E 000°09'2711.4
2015-Aug-22 18:10N 39°22' W 000°12'610.1
2015-Aug-22 17:33N 39°26' W 000°18'1 0.6
2015-Aug-22 16:32N 39°26' W 000°19'0 0.0
2015-Aug-22 15:08N 39°26' W 000°19'0 0.0
2015-Aug-22 14:11N 39°26' W 000°19'0 0.0
2015-Aug-22 13:32N 39°26' W 000°19'0 0.0
2015-Aug-22 12:23N 39°26' W 000°19'0 0.0
2015-Aug-22 11:32N 39°26' W 000°19'0 0.0
2015-Aug-22 10:26N 39°26' W 000°19'0 0.0
2015-Aug-22 09:32N 39°26' W 000°19'0 0.0
2015-Aug-22 08:32N 39°26' W 000°19'0 0.0
2015-Aug-22 07:32N 39°26' W 000°19'0 0.0
2015-Aug-22 06:29N 39°26' W 000°19'0 0.0
2015-Aug-22 05:32N 39°26' W 000°19'0 0.0
2015-Aug-22 04:32N 39°26' W 000°19'0 0.0
2015-Aug-22 03:32N 39°26' W 000°19'0 0.0
2015-Aug-22 02:32N 39°26' W 000°19'0 0.0
2015-Aug-22 01:32N 39°26' W 000°19'0 0.0
2015-Aug-22 00:20N 39°26' W 000°19'1 1.2
2015-Aug-21 23:33N 39°26' W 000°18'6 6.0
2015-Aug-21 22:33N 39°25' W 000°10'4515.1
2015-Aug-21 19:33N 39°21' E 000°48'1717.3
2015-Aug-21 18:33N 39°17' E 001°10'1817.6
2015-Aug-21 17:33N 39°13' E 001°32'1817.5
2015-Aug-21 16:33N 39°09' E 001°54'1817.7
2015-Aug-21 15:33N 39°05' E 002°16'1717.5
2015-Aug-21 14:33N 39°01' E 002°38'1817.5
2015-Aug-21 13:33N 38°57' E 003°00'1817.6
2015-Aug-21 12:33N 38°53' E 003°22'1717.6
2015-Aug-21 11:34N 38°49' E 003°44'1817.7
2015-Aug-21 10:32N 38°45' E 004°07'39117.4
2015-Aug-20 12:07N 37°12' E 012°08'1417.3
2015-Aug-20 11:18N 37°08' E 012°25'1717.4
2015-Aug-20 10:19N 37°04' E 012°46'1417.9
2015-Aug-20 09:31N 36°59' E 013°03'1717.9
2015-Aug-20 08:34N 36°55' E 013°24'1817.6
2015-Aug-20 07:34N 36°50' E 013°45'1717.3
2015-Aug-20 06:34N 36°46' E 014°06'1717.2
2015-Aug-20 05:34N 36°41' E 014°27'1717.2
2015-Aug-20 04:34N 36°36' E 014°47'1717.4
2015-Aug-20 03:34N 36°32' E 015°08'1817.6
2015-Aug-20 02:33N 36°26' E 015°29'75315.0
2015-Aug-18 00:14N 32°36' E 029°60'  

Dump ship's entire track history